BRYA4: Kings River Nr Berryville, AR

                                SHEF ID:       BRYA4     Kings River near Berryville, AR
STATION TYPE: Stream Gauge

PRECIP STAGE RIV-FLOW BAT-LOAD
in ft cfs volt
Ccp-Rev Ccp-Rev Ccp-Rev Ccp-Rev
(America/Chicago)
05/28 00:00 0.00 5.01 825 12.54
05/28 01:00 0.00 4.99 810 12.54
05/28 02:00 0.00 4.98 802 12.54
05/28 03:00 0.00 4.96 788 12.54
05/28 04:00 0.00 4.93 766 12.48
05/28 05:00 0.00 4.90 744 12.42
05/28 06:00 0.00 4.89 737 12.42
05/28 07:00 0.00 4.86 717 12.42
05/28 08:00 0.00 4.84 703 12.60
05/28 09:00 0.00 4.83 696 13.00
05/28 10:00 0.01 4.80 676 13.30
05/28 11:00 0.02 4.79 669 12.89
05/28 12:00 0.00 4.77 656 13.42
05/28 13:00 0.00 4.76 650 13.77
05/28 14:00 0.00 4.75 643 13.77
05/28 15:00 0.00 4.74 637 13.36
05/28 16:00 0.00 4.71 618 13.30
05/28 17:00 0.00 4.69 605 13.24
05/28 18:00 0.00 4.67 593 13.12
05/28 19:00 0.00 4.67 593 13.12
05/28 20:00 0.00 4.64 575 13.00
05/28 21:00 0.00 4.63 569 12.71
05/28 22:00 0.00 4.62 563 12.60
05/28 23:00 0.00 4.60 551 12.60
Data processed at Wed 29May2024 04:22 GMT

Parsing this webpage?

Checkout our new Data API! CWMSDataAPI (CDA)

Timeseries IDs (TSIDs)

TSIDs used from left to right in the data table
BERR.Precip-Inc.Total.1Hour.1Hour.Ccp-Rev
BERR.Stage.Inst.1Hour.0.Ccp-Rev
BERR.Flow.Inst.1Hour.0.Ccp-Rev
BERR.Volt-Battery Load.Inst.1Hour.0.Ccp-Rev

                            

All information presented herein is the property of the government of the United States of America and may be revised or deleted at any time without prior notice. Dissemination of this information without the expressed written consent of the Public Affairs Office, Tulsa District U.S. Army Corps of Engineers is strictly prohibited. These data are gathered electronically and, as presented, have NOT undergone any form of quality control. These data are NOT guaranteed to be valid or correct.